Time;durP1;ratioP1;P1;durP2;ratioP2;P2;SDS_P1;SDS_P2;PMS_P1;PMS_P2;Temp;Humidity;BMP_temperature;BMP_pressure;BME280_temperature;BME280_humidity;BME280_pressure;Samples;Min_cycle;Max_cycle;Signal;HPM_P1;HPM_P2
2022/06/03 00:01:54;;;;;;;0.00;0.00;;;9.10;99.90;;;;;;5036962;27;20232;-72
2022/06/03 00:04:49;;;;;;;0.00;0.00;;;9.10;99.90;;;;;;5038201;28;20292;-73
2022/06/03 00:07:31;;;;;;;0.00;0.00;;;9.10;99.90;;;;;;5037827;28;20226;-72
2022/06/03 00:10:19;;;;;;;0.00;0.00;;;9.00;99.90;;;;;;5038585;28;20197;-73
2022/06/03 00:12:53;;;;;;;0.00;0.00;;;8.90;99.90;;;;;;5038733;28;20249;-74
2022/06/03 00:15:35;;;;;;;0.00;0.00;;;8.90;99.90;;;;;;5037601;28;20204;-71
2022/06/03 00:18:36;;;;;;;0.00;0.00;;;9.00;99.90;;;;;;5048862;28;20209;-73
2022/06/03 00:21:07;;;;;;;0.00;0.00;;;9.00;99.90;;;;;;5037837;28;20231;-73
2022/06/03 00:24:04;;;;;;;0.00;0.00;;;9.00;99.90;;;;;;5037838;28;20254;-73
2022/06/03 00:26:49;;;;;;;0.00;0.00;;;8.90;99.90;;;;;;5037399;27;20225;-72
2022/06/03 00:29:44;;;;;;;0.00;0.00;;;9.00;99.90;;;;;;5038344;28;20856;-72
2022/06/03 00:32:43;;;;;;;0.00;0.00;;;9.00;99.90;;;;;;5037641;28;20218;-71
2022/06/03 00:35:50;;;;;;;0.00;0.00;;;8.90;99.90;;;;;;5037984;28;20201;-70
2022/06/03 00:38:37;;;;;;;0.00;0.00;;;8.90;99.90;;;;;;5053832;28;20293;-70
2022/06/03 00:41:25;;;;;;;0.00;0.00;;;9.00;99.90;;;;;;5037544;28;20227;-72
2022/06/03 00:44:08;;;;;;;0.00;0.00;;;9.00;99.90;;;;;;5037146;27;20241;-72
2022/06/03 00:46:58;;;;;;;0.00;0.00;;;9.00;99.90;;;;;;5036991;28;20228;-71
2022/06/03 00:49:46;;;;;;;0.00;0.00;;;9.00;99.90;;;;;;5037101;28;20212;-71
2022/06/03 00:52:51;;;;;;;0.00;0.00;;;8.90;99.90;;;;;;5037754;28;20230;-72
2022/06/03 00:55:37;;;;;;;0.00;0.00;;;8.90;99.90;;;;;;5037257;28;20212;-70
2022/06/03 00:58:31;;;;;;;0.00;0.00;;;8.80;99.90;;;;;;5037267;28;20209;-72
2022/06/03 01:01:09;;;;;;;0.00;0.00;;;8.80;99.90;;;;;;5037252;27;20221;-70
2022/06/03 01:03:49;;;;;;;0.00;0.00;;;8.80;99.90;;;;;;5038553;28;20202;-70
2022/06/03 01:06:29;;;;;;;0.00;0.00;;;8.80;99.90;;;;;;5038783;28;20741;-71
2022/06/03 01:09:09;;;;;;;0.00;0.00;;;8.70;99.90;;;;;;5038389;28;20197;-70
2022/06/03 01:12:19;;;;;;;0.00;0.00;;;8.60;99.90;;;;;;5037177;27;20232;-70
2022/06/03 01:15:01;;;;;;;0.00;0.00;;;8.60;99.90;;;;;;5039073;27;20212;-69
2022/06/03 01:17:43;;;;;;;0.00;0.00;;;8.70;99.90;;;;;;5036958;28;20251;-70
2022/06/03 01:20:19;;;;;;;0.00;0.00;;;8.60;99.90;;;;;;5037072;28;20217;-71
2022/06/03 01:23:37;;;;;;;0.00;0.00;;;8.60;99.90;;;;;;5036873;28;20229;-72
2022/06/03 01:26:41;;;;;;;0.00;0.00;;;8.70;99.90;;;;;;5041271;27;20221;-71
2022/06/03 01:29:29;;;;;;;0.00;0.00;;;8.70;99.90;;;;;;5036230;28;20201;-70
2022/06/03 01:32:27;;;;;;;0.00;0.00;;;8.50;99.90;;;;;;5037322;28;20222;-74
2022/06/03 01:35:09;;;;;;;0.00;0.00;;;8.50;99.90;;;;;;5036479;28;20202;-70
2022/06/03 01:37:47;;;;;;;0.00;0.00;;;8.40;99.90;;;;;;5036804;28;20644;-73
2022/06/03 01:40:29;;;;;;;0.00;0.00;;;8.40;99.90;;;;;;5036248;28;20233;-70
2022/06/03 01:43:24;;;;;;;0.00;0.00;;;8.50;99.90;;;;;;5036482;28;20810;-70
2022/06/03 01:46:16;;;;;;;0.00;0.00;;;8.50;99.90;;;;;;5035624;27;20206;-73
2022/06/03 01:49:18;;;;;;;0.00;0.00;;;8.50;99.90;;;;;;5036752;28;20210;-72
2022/06/03 01:51:59;;;;;;;0.00;0.00;;;8.50;99.90;;;;;;5036034;27;20225;-74
2022/06/03 01:54:57;;;;;;;0.00;0.00;;;8.50;99.90;;;;;;5035991;28;20687;-73
2022/06/03 01:57:48;;;;;;;0.00;0.00;;;8.40;99.90;;;;;;5036488;28;20194;-71
2022/06/03 02:00:28;;;;;;;0.00;0.00;;;8.40;99.90;;;;;;5035525;28;20236;-72
2022/06/03 02:03:30;;;;;;;0.00;0.00;;;8.40;99.90;;;;;;5036383;28;20310;-72
2022/06/03 02:06:43;;;;;;;0.00;0.00;;;8.40;99.90;;;;;;5036609;28;20202;-79
2022/06/03 02:09:51;;;;;;;0.00;0.00;;;8.30;99.90;;;;;;5036356;27;20706;-76
2022/06/03 02:12:52;;;;;;;0.00;0.00;;;8.30;99.90;;;;;;5036098;28;20229;-75
2022/06/03 02:15:57;;;;;;;0.00;0.00;;;8.30;99.90;;;;;;5038443;28;20201;-77
2022/06/03 02:18:46;;;;;;;0.00;0.00;;;8.20;99.90;;;;;;5045518;28;20208;-78
2022/06/03 02:21:46;;;;;;;0.00;0.00;;;8.20;99.90;;;;;;5037153;28;20228;-77
2022/06/03 02:24:42;;;;;;;0.00;0.00;;;8.10;99.90;;;;;;5036641;27;20208;-75
2022/06/03 02:27:44;;;;;;;0.00;0.00;;;8.20;99.90;;;;;;5037214;27;20240;-77
2022/06/03 02:30:54;;;;;;;0.00;0.00;;;8.20;99.90;;;;;;5038318;28;20193;-75
2022/06/03 02:33:57;;;;;;;0.00;0.00;;;8.10;99.90;;;;;;5055007;27;20201;-74
2022/06/03 02:37:04;;;;;;;0.00;0.00;;;8.10;99.90;;;;;;5038571;28;20841;-75
2022/06/03 02:40:00;;;;;;;0.00;0.00;;;8.20;99.90;;;;;;5040109;28;20206;-72
2022/06/03 02:42:53;;;;;;;0.00;0.00;;;8.10;99.90;;;;;;5041749;28;20305;-71
2022/06/03 02:46:13;;;;;;;0.00;0.00;;;8.20;99.90;;;;;;5047123;28;20266;-74
2022/06/03 02:49:02;;;;;;;0.00;0.00;;;8.10;99.90;;;;;;5046132;28;20197;-76
2022/06/03 02:51:46;;;;;;;0.00;0.00;;;8.00;99.90;;;;;;5046075;28;20256;-74
2022/06/03 02:54:55;;;;;;;0.00;0.00;;;8.10;99.90;;;;;;5047370;28;20692;-73
2022/06/03 02:57:44;;;;;;;0.00;0.00;;;8.00;99.90;;;;;;5035831;28;20204;-72
2022/06/03 03:00:32;;;;;;;0.00;0.00;;;8.00;99.90;;;;;;5036684;28;20702;-72
2022/06/03 03:03:24;;;;;;;0.00;0.00;;;8.00;99.90;;;;;;5035796;27;20230;-74
2022/06/03 03:06:31;;;;;;;0.00;0.00;;;8.10;99.90;;;;;;5040955;28;20201;-74
2022/06/03 03:09:16;;;;;;;0.00;0.00;;;8.00;99.90;;;;;;5042390;28;20193;-72
2022/06/03 03:12:16;;;;;;;0.00;0.00;;;8.00;99.90;;;;;;5039326;28;20221;-72
2022/06/03 03:15:19;;;;;;;0.00;0.00;;;7.90;99.90;;;;;;5039598;27;20281;-72
2022/06/03 03:18:24;;;;;;;0.00;0.00;;;8.00;99.90;;;;;;5038524;27;20202;-73
2022/06/03 03:21:22;;;;;;;0.00;0.00;;;8.00;99.90;;;;;;5046289;28;20205;-73
2022/06/03 03:24:23;;;;;;;0.00;0.00;;;7.90;99.90;;;;;;5038638;27;20206;-73
2022/06/03 03:26:56;;;;;;;0.00;0.00;;;7.90;99.90;;;;;;5039287;28;20224;-71
2022/06/03 03:29:44;;;;;;;0.00;0.00;;;7.90;99.90;;;;;;5054744;28;20255;-74
2022/06/03 03:32:33;;;;;;;0.00;0.00;;;7.90;99.90;;;;;;5060669;28;20309;-72
2022/06/03 03:35:27;;;;;;;0.00;0.00;;;8.00;99.90;;;;;;5055024;28;20218;-72
2022/06/03 03:38:36;;;;;;;0.00;0.00;;;8.10;99.90;;;;;;5039448;28;20204;-72
2022/06/03 03:41:54;;;;;;;0.00;0.00;;;8.00;99.90;;;;;;5039583;28;20224;-73
2022/06/03 03:44:52;;;;;;;0.00;0.00;;;8.10;99.90;;;;;;5038274;28;20204;-71
2022/06/03 03:48:16;;;;;;;0.00;0.00;;;8.10;99.90;;;;;;5036427;27;20225;-73
2022/06/03 03:50:58;;;;;;;0.00;0.00;;;8.10;99.90;;;;;;5058761;28;20795;-76
2022/06/03 03:53:58;;;;;;;0.00;0.00;;;8.20;99.90;;;;;;5040071;28;20751;-74
2022/06/03 03:57:16;;;;;;;0.00;0.00;;;8.30;99.90;;;;;;5038671;28;20202;-76
2022/06/03 04:00:16;;;;;;;0.00;0.00;;;8.30;99.90;;;;;;5050967;28;20202;-79
2022/06/03 04:03:17;;;;;;;0.00;0.00;;;8.30;99.90;;;;;;5043518;28;20226;-76
2022/06/03 04:06:17;;;;;;;0.00;0.00;;;8.30;99.90;;;;;;5044181;28;20202;-75
2022/06/03 04:09:28;;;;;;;0.00;0.00;;;8.40;99.90;;;;;;5037848;28;20236;-73
2022/06/03 04:12:35;;;;;;;0.00;0.00;;;8.40;99.90;;;;;;5037686;27;20221;-75
2022/06/03 04:15:45;;;;;;;0.00;0.00;;;8.50;99.90;;;;;;5031408;27;20208;-75
2022/06/03 04:18:45;;;;;;;0.00;0.00;;;8.50;99.90;;;;;;5036962;28;20277;-75
2022/06/03 04:21:38;;;;;;;0.00;0.00;;;8.70;99.90;;;;;;5035675;27;20302;-76
2022/06/03 04:24:41;;;;;;;0.00;0.00;;;8.70;99.90;;;;;;5022575;28;20233;-80
2022/06/03 04:27:43;;;;;;;0.00;0.00;;;8.70;99.90;;;;;;5029142;28;20212;-76
2022/06/03 04:30:43;;;;;;;0.00;0.00;;;8.80;99.90;;;;;;5038802;28;20211;-78
2022/06/03 04:33:37;;;;;;;0.00;0.00;;;8.90;99.90;;;;;;5018882;27;20389;-78
2022/06/03 04:36:50;;;;;;;0.00;0.00;;;9.00;99.90;;;;;;5018619;28;20291;-84
2022/06/03 04:39:58;;;;;;;0.00;0.00;;;9.10;99.90;;;;;;5018229;28;20202;-78
2022/06/03 04:43:16;;;;;;;0.00;0.00;;;9.10;99.90;;;;;;5023719;27;20229;-78
2022/06/03 04:46:33;;;;;;;0.00;0.00;;;9.30;99.90;;;;;;5028391;28;20222;-76
2022/06/03 04:49:41;;;;;;;0.00;0.00;;;9.40;99.90;;;;;;5053696;27;20248;-75
2022/06/03 04:53:05;;;;;;;0.00;0.00;;;9.50;99.90;;;;;;5045231;27;20296;-75
2022/06/03 04:56:11;;;;;;;0.00;0.00;;;9.50;99.90;;;;;;5042202;28;20198;-78
2022/06/03 04:59:16;;;;;;;0.00;0.00;;;9.70;99.90;;;;;;5048995;28;20202;-69
2022/06/03 05:02:29;;;;;;;0.00;0.00;;;9.70;99.90;;;;;;5034183;27;20374;-70
2022/06/03 05:05:39;;;;;;;0.00;0.00;;;9.80;99.90;;;;;;5021331;28;20233;-72
2022/06/03 05:08:55;;;;;;;0.00;0.00;;;10.00;99.90;;;;;;5023407;28;20221;-71
2022/06/03 05:12:22;;;;;;;0.00;0.00;;;10.10;99.90;;;;;;5023406;28;20538;-71
2022/06/03 05:15:08;;;;;;;0.00;0.00;;;10.20;99.90;;;;;;5020662;28;20673;-72
2022/06/03 05:18:05;;;;;;;0.00;0.00;;;10.40;99.90;;;;;;5025485;27;20412;-71
2022/06/03 05:21:03;;;;;;;0.00;0.00;;;10.50;99.90;;;;;;5027153;27;20588;-71
2022/06/03 05:23:55;;;;;;;0.00;0.00;;;10.70;99.90;;;;;;5020869;27;20983;-71
2022/06/03 05:26:48;;;;;;;0.00;0.00;;;11.10;99.90;;;;;;5017775;28;20449;-71
2022/06/03 05:29:54;;;;;;;0.00;0.00;;;11.60;99.90;;;;;;5016030;28;20473;-71
2022/06/03 05:33:01;;;;;;;0.00;0.00;;;11.80;99.90;;;;;;5016431;28;20468;-71
2022/06/03 05:35:42;;;;;;;0.00;0.00;;;11.80;99.90;;;;;;5016709;27;20583;-71
2022/06/03 05:39:05;;;;;;;0.00;0.00;;;11.80;99.90;;;;;;5016201;28;20449;-71
2022/06/03 05:44:54;;;;;;;0.00;0.00;;;11.80;99.90;;;;;;5015147;28;20456;-69
2022/06/03 05:47:27;;;;;;;0.00;0.00;;;11.80;99.90;;;;;;5016188;28;21106;-71
2022/06/03 05:50:02;;;;;;;0.00;0.00;;;11.80;99.90;;;;;;5018379;28;20484;-70
2022/06/03 05:52:40;;;;;;;0.00;0.00;;;11.80;99.90;;;;;;5016367;28;20468;-70
2022/06/03 05:55:27;;;;;;;0.00;0.00;;;11.90;99.90;;;;;;5020460;28;20443;-68
2022/06/03 05:58:19;;;;;;;0.00;0.00;;;11.90;99.90;;;;;;5036400;28;20446;-70
2022/06/03 06:00:59;;;;;;;0.00;0.00;;;12.00;99.90;;;;;;5021585;28;20437;-69
2022/06/03 06:03:40;;;;;;;0.00;0.00;;;12.10;99.90;;;;;;5026388;27;20441;-70
2022/06/03 06:06:25;;;;;;;0.00;0.00;;;12.20;99.90;;;;;;5017991;28;20999;-71
2022/06/03 06:09:02;;;;;;;0.00;0.00;;;12.30;99.90;;;;;;5018686;27;20502;-68
2022/06/03 06:11:41;;;;;;;0.00;0.00;;;12.30;99.90;;;;;;5023422;28;20472;-68
2022/06/03 06:14:25;;;;;;;0.00;0.00;;;12.30;99.90;;;;;;5023919;28;20760;-72
2022/06/03 06:17:02;;;;;;;0.00;0.00;;;12.40;99.90;;;;;;5024559;28;20513;-69
2022/06/03 06:19:41;;;;;;;0.00;0.00;;;12.50;99.90;;;;;;5024504;27;20470;-67
2022/06/03 06:22:20;;;;;;;0.00;0.00;;;12.60;99.90;;;;;;5023764;28;20524;-67
2022/06/03 06:24:56;;;;;;;0.00;0.00;;;12.80;99.90;;;;;;5025680;28;20455;-68
2022/06/03 06:27:51;;;;;;;0.00;0.00;;;12.90;99.90;;;;;;5015309;28;20449;-67
2022/06/03 06:30:29;;;;;;;0.00;0.00;;;13.00;99.90;;;;;;5015789;28;20499;-67
2022/06/03 06:33:18;;;;;;;0.00;0.00;;;13.10;99.90;;;;;;5026673;27;20561;-67
2022/06/03 06:36:15;;;;;;;0.00;0.00;;;13.10;99.90;;;;;;5015073;28;20921;-68
2022/06/03 06:38:56;;;;;;;0.00;0.00;;;13.20;99.90;;;;;;5020690;28;20804;-70
2022/06/03 06:41:40;;;;;;;0.00;0.00;;;13.30;99.90;;;;;;5025014;28;20453;-69
2022/06/03 06:44:11;;;;;;;0.00;0.00;;;13.30;99.90;;;;;;5015195;28;20441;-69
2022/06/03 06:46:55;;;;;;;0.00;0.00;;;13.40;99.90;;;;;;5014265;28;20658;-67
2022/06/03 06:49:28;;;;;;;0.00;0.00;;;13.50;99.90;;;;;;5022215;28;20473;-68
2022/06/03 06:52:06;;;;;;;0.00;0.00;;;13.60;99.90;;;;;;5022446;28;20470;-69
2022/06/03 06:54:47;;;;;;;0.00;0.00;;;13.70;99.90;;;;;;5026463;28;20448;-69
2022/06/03 06:57:19;;;;;;;0.00;0.00;;;13.70;99.90;;;;;;5016081;28;20445;-69
2022/06/03 06:59:54;;;;;;;0.00;0.00;;;13.80;99.90;;;;;;5026403;28;20738;-68
2022/06/03 07:02:28;;;;;;;0.00;0.00;;;13.90;99.90;;;;;;5024373;28;21112;-68
2022/06/03 07:05:02;;;;;;;0.00;0.00;;;13.90;99.90;;;;;;5014747;28;20711;-68
2022/06/03 07:07:35;;;;;;;0.00;0.00;;;14.00;99.90;;;;;;5014254;28;20441;-68
2022/06/03 07:10:10;;;;;;;0.00;0.00;;;14.10;99.90;;;;;;5013727;27;20857;-69
2022/06/03 07:12:45;;;;;;;0.00;0.00;;;14.20;99.90;;;;;;5014687;28;20464;-69
2022/06/03 07:15:36;;;;;;;0.00;0.00;;;14.30;99.90;;;;;;5014084;28;20448;-69
2022/06/03 07:21:09;;;;;;;0.00;0.00;;;14.30;99.90;;;;;;5014426;27;20840;-70
2022/06/03 07:23:45;;;;;;;0.00;0.00;;;14.30;99.90;;;;;;5018676;28;20455;-70
2022/06/03 07:26:30;;;;;;;0.00;0.00;;;14.40;99.90;;;;;;5021552;28;20449;-71
2022/06/03 07:29:05;;;;;;;0.00;0.00;;;14.50;99.90;;;;;;5025888;28;20479;-71
2022/06/03 07:31:40;;;;;;;0.00;0.00;;;14.60;99.90;;;;;;5022884;27;20495;-70
2022/06/03 07:34:17;;;;;;;0.00;0.00;;;14.70;99.90;;;;;;5026411;28;20437;-72
2022/06/03 07:36:50;;;;;;;0.00;0.00;;;14.80;99.90;;;;;;5024631;28;20493;-71
2022/06/03 07:39:35;;;;;;;0.00;0.00;;;14.90;99.90;;;;;;5019037;28;20686;-71
2022/06/03 07:42:08;;;;;;;0.00;0.00;;;15.10;99.90;;;;;;5030777;27;20501;-70
2022/06/03 07:44:45;;;;;;;0.00;0.00;;;15.10;99.90;;;;;;5013867;28;20459;-71
2022/06/03 07:47:18;;;;;;;0.00;0.00;;;15.20;99.90;;;;;;5027000;28;20598;-71
2022/06/03 07:49:53;;;;;;;0.00;0.00;;;15.40;99.90;;;;;;5033918;28;20981;-71
2022/06/03 07:52:29;;;;;;;0.00;0.00;;;15.50;99.90;;;;;;5036856;27;20476;-71
2022/06/03 07:54:57;;;;;;;0.00;0.00;;;15.60;99.90;;;;;;5051427;28;20492;-71
2022/06/03 07:57:29;;;;;;;0.00;0.00;;;15.70;99.90;;;;;;5056993;28;20444;-71
2022/06/03 07:59:59;;;;;;;0.00;0.00;;;15.90;99.90;;;;;;5038943;28;20464;-70
2022/06/03 08:02:28;;;;;;;0.00;0.00;;;15.90;99.90;;;;;;5027495;27;20509;-70
2022/06/03 08:05:10;;;;;;;0.00;0.00;;;16.00;99.90;;;;;;5021109;27;20464;-71
2022/06/03 08:13:15;;;;;;;0.00;0.00;;;16.30;99.90;;;;;;5035478;27;20480;-71
2022/06/03 08:15:53;;;;;;;0.00;0.00;;;16.40;99.90;;;;;;5027271;28;21132;-71
2022/06/03 08:18:25;;;;;;;0.00;0.00;;;16.40;99.90;;;;;;5022727;28;20555;-71
2022/06/03 08:20:58;;;;;;;0.00;0.00;;;16.50;99.90;;;;;;5022177;28;20442;-71
2022/06/03 08:23:30;;;;;;;0.00;0.00;;;16.40;99.90;;;;;;5019542;27;20470;-69
2022/06/03 08:26:00;;;;;;;0.00;0.00;;;16.50;99.90;;;;;;5033756;28;20437;-69
2022/06/03 08:28:31;;;;;;;0.00;0.00;;;16.60;99.90;;;;;;5036763;28;20437;-69
2022/06/03 08:31:03;;;;;;;0.00;0.00;;;16.70;99.90;;;;;;5037455;28;20495;-68
2022/06/03 08:33:38;;;;;;;0.00;0.00;;;16.70;99.90;;;;;;5034330;27;20906;-69
2022/06/03 08:36:07;;;;;;;0.00;0.00;;;16.70;99.90;;;;;;5022817;27;20457;-69
2022/06/03 08:38:41;;;;;;;0.00;0.00;;;16.70;99.90;;;;;;5022023;28;20445;-69
2022/06/03 08:41:22;;;;;;;0.00;0.00;;;16.80;99.90;;;;;;5026670;28;20481;-69
2022/06/03 08:44:06;;;;;;;0.00;0.00;;;16.80;99.90;;;;;;5025277;28;20457;-69
2022/06/03 08:46:37;;;;;;;0.00;0.00;;;16.90;99.90;;;;;;5036584;28;20440;-69
2022/06/03 08:49:12;;;;;;;0.00;0.00;;;16.80;99.90;;;;;;5028969;28;20837;-69
2022/06/03 08:51:49;;;;;;;0.00;0.00;;;17.00;99.90;;;;;;5017391;28;20467;-70
2022/06/03 08:54:26;;;;;;;0.00;0.00;;;17.10;99.90;;;;;;5022301;28;20480;-69
2022/06/03 08:56:57;;;;;;;0.00;0.00;;;17.20;99.90;;;;;;5038743;27;20584;-69
2022/06/03 08:59:32;;;;;;;0.00;0.00;;;17.30;99.90;;;;;;5019779;28;20440;-69
2022/06/03 09:02:04;;;;;;;0.00;0.00;;;17.30;99.90;;;;;;5028012;28;20706;-69
2022/06/03 09:04:45;;;;;;;0.00;0.00;;;17.40;99.90;;;;;;5033948;28;20455;-70
2022/06/03 09:07:19;;;;;;;0.00;0.00;;;17.50;99.90;;;;;;5021036;27;20498;-69
2022/06/03 09:09:51;;;;;;;0.00;0.00;;;17.50;99.90;;;;;;5019986;28;20487;-68
2022/06/03 09:12:26;;;;;;;0.00;0.00;;;17.70;99.90;;;;;;5023571;28;20835;-68
2022/06/03 09:14:54;;;;;;;0.00;0.00;;;17.80;99.90;;;;;;5019595;28;21025;-70
2022/06/03 09:17:42;;;;;;;0.00;0.00;;;17.80;99.90;;;;;;5027740;27;20497;-70
2022/06/03 09:20:15;;;;;;;0.00;0.00;;;17.70;99.90;;;;;;5020083;27;20677;-70
2022/06/03 09:22:45;;;;;;;0.00;0.00;;;17.70;99.90;;;;;;5028604;28;20864;-69
2022/06/03 09:25:16;;;;;;;0.00;0.00;;;17.80;99.90;;;;;;5024927;28;20715;-68
2022/06/03 09:27:46;;;;;;;0.00;0.00;;;17.90;99.90;;;;;;5021319;27;20466;-69
2022/06/03 09:30:27;;;;;;;0.00;0.00;;;18.00;99.90;;;;;;5019314;28;21036;-71
2022/06/03 09:32:57;;;;;;;0.00;0.00;;;18.10;99.90;;;;;;5016376;28;20810;-67
2022/06/03 09:35:27;;;;;;;0.00;0.00;;;18.10;99.90;;;;;;5016251;28;20456;-69
2022/06/03 09:37:58;;;;;;;0.00;0.00;;;18.20;99.90;;;;;;5019003;28;20753;-70
2022/06/03 09:40:31;;;;;;;0.00;0.00;;;18.30;99.90;;;;;;5017806;28;20834;-70
2022/06/03 09:43:04;;;;;;;0.00;0.00;;;18.40;99.90;;;;;;5036175;28;20481;-69
2022/06/03 09:45:32;;;;;;;0.00;0.00;;;18.40;99.10;;;;;;5031167;28;20493;-70
2022/06/03 09:48:03;;;;;;;0.00;0.00;;;18.40;99.20;;;;;;5020006;28;20546;-72
2022/06/03 09:50:33;;;;;;;0.00;0.00;;;18.50;99.20;;;;;;5025956;27;20520;-72
2022/06/03 09:53:03;;;;;;;0.00;0.00;;;18.50;99.90;;;;;;5036112;28;20753;-71
2022/06/03 09:55:36;;;;;;;0.00;0.00;;;18.60;99.90;;;;;;5020073;28;20538;-70
2022/06/03 09:58:08;;;;;;;0.00;0.00;;;18.80;99.90;;;;;;5015634;28;20986;-70
2022/06/03 10:00:43;;;;;;;0.00;0.00;;;18.80;99.90;;;;;;5016168;27;20568;-70
2022/06/03 10:03:12;;;;;;;0.00;0.00;;;18.90;99.90;;;;;;5025335;28;20607;-70
2022/06/03 10:05:46;;;;;;;0.00;0.00;;;19.00;99.90;;;;;;5029813;28;20445;-71
2022/06/03 10:08:16;;;;;;;0.00;0.00;;;19.10;99.40;;;;;;5018292;28;20471;-72
2022/06/03 10:13:33;;;;;;;0.00;0.00;;;19.20;99.90;;;;;;5028583;28;20459;-70
2022/06/03 10:16:03;;;;;;;0.00;0.00;;;19.20;99.90;;;;;;5035496;28;20436;-73
2022/06/03 10:18:36;;;;;;;0.00;0.00;;;19.30;99.90;;;;;;5018544;28;20445;-71
2022/06/03 10:21:28;;;;;;;0.00;0.00;;;19.40;99.90;;;;;;5016426;28;20612;-71
2022/06/03 10:23:59;;;;;;;0.00;0.00;;;19.40;99.70;;;;;;5015659;28;20955;-72
2022/06/03 10:26:40;;;;;;;0.00;0.00;;;19.50;99.50;;;;;;5015227;28;20441;-71
2022/06/03 10:29:13;;;;;;;0.00;0.00;;;19.60;99.90;;;;;;5014959;28;20444;-73
2022/06/03 10:31:50;;;;;;;0.00;0.00;;;19.70;99.60;;;;;;5021871;27;20487;-71
2022/06/03 10:34:28;;;;;;;0.00;0.00;;;19.70;99.10;;;;;;5024895;28;20445;-71
2022/06/03 10:36:58;;;;;;;0.00;0.00;;;19.80;98.80;;;;;;5014653;28;20463;-72
2022/06/03 10:39:27;;;;;;;0.00;0.00;;;19.80;98.90;;;;;;5032619;28;20444;-73
2022/06/03 10:41:58;;;;;;;0.00;0.00;;;19.80;97.90;;;;;;5035173;28;20699;-71
2022/06/03 10:44:28;;;;;;;0.00;0.00;;;19.80;97.50;;;;;;5026996;28;20794;-72
2022/06/03 10:46:59;;;;;;;0.00;0.00;;;19.80;97.40;;;;;;5014884;28;20437;-71
2022/06/03 10:49:29;;;;;;;0.00;0.00;;;19.80;98.00;;;;;;5014329;28;20547;-71
2022/06/03 11:03:23;;;;;;;0.00;0.00;;;19.90;96.50;;;;;;5034818;28;20946;-70
2022/06/03 11:05:51;;;;;;;0.00;0.00;;;19.90;96.40;;;;;;5028225;28;20468;-72
2022/06/03 11:08:21;;;;;;;0.00;0.00;;;20.00;94.70;;;;;;5014698;28;20533;-74
2022/06/03 11:10:51;;;;;;;0.00;0.00;;;20.00;95.20;;;;;;5020072;28;20889;-70
2022/06/03 11:13:28;;;;;;;0.00;0.00;;;20.10;95.50;;;;;;5016191;28;20441;-72
2022/06/03 11:16:11;;;;;;;0.00;0.00;;;20.10;95.00;;;;;;5021940;28;20965;-72
2022/06/03 11:18:41;;;;;;;0.00;0.00;;;20.10;94.80;;;;;;5034767;28;21088;-72
2022/06/03 11:21:20;;;;;;;0.00;0.00;;;20.10;94.80;;;;;;5035411;28;20462;-70
2022/06/03 11:23:54;;;;;;;0.00;0.00;;;20.10;94.50;;;;;;5039154;28;20432;-77
2022/06/03 11:26:27;;;;;;;0.00;0.00;;;20.20;94.60;;;;;;5047040;28;20447;-77
2022/06/03 11:29:01;;;;;;;0.00;0.00;;;20.10;95.20;;;;;;5031847;27;20472;-77
2022/06/03 11:31:35;;;;;;;0.00;0.00;;;20.20;96.20;;;;;;5031155;28;20515;-77
2022/06/03 11:34:09;;;;;;;0.00;0.00;;;20.30;97.30;;;;;;5037311;28;20755;-80
2022/06/03 11:36:40;;;;;;;0.00;0.00;;;20.40;95.10;;;;;;5050154;28;20452;-78
2022/06/03 11:39:12;;;;;;;0.00;0.00;;;20.50;96.80;;;;;;5047482;27;20673;-77
2022/06/03 11:41:44;;;;;;;0.00;0.00;;;20.50;95.50;;;;;;5047994;28;20552;-79
2022/06/03 11:44:16;;;;;;;0.00;0.00;;;20.60;94.70;;;;;;5047456;28;20535;-78
2022/06/03 11:46:49;;;;;;;0.00;0.00;;;20.60;93.00;;;;;;5036107;28;20513;-79
2022/06/03 11:49:20;;;;;;;0.00;0.00;;;20.60;93.40;;;;;;5034359;27;20457;-78
2022/06/03 11:51:49;;;;;;;0.00;0.00;;;20.60;93.70;;;;;;5044603;28;20495;-79
2022/06/03 11:54:23;;;;;;;0.00;0.00;;;20.70;92.90;;;;;;5034134;28;20533;-78
2022/06/03 11:56:52;;;;;;;0.00;0.00;;;20.70;93.30;;;;;;5036961;28;20592;-78
2022/06/03 11:59:27;;;;;;;0.00;0.00;;;20.70;93.80;;;;;;5034747;28;20460;-79
2022/06/03 12:02:02;;;;;;;0.00;0.00;;;20.70;93.00;;;;;;5044619;28;20790;-79
2022/06/03 12:04:44;;;;;;;0.00;0.00;;;20.80;92.60;;;;;;5053730;28;20424;-77
2022/06/03 12:07:23;;;;;;;0.00;0.00;;;20.80;93.40;;;;;;5031396;28;20441;-77
2022/06/03 12:09:59;;;;;;;0.00;0.00;;;20.80;94.00;;;;;;5027499;27;20460;-78
2022/06/03 12:15:43;;;;;;;0.00;0.00;;;20.90;93.70;;;;;;5030573;28;20782;-79
2022/06/03 12:18:50;;;;;;;0.00;0.00;;;21.00;94.10;;;;;;5030039;27;20948;-79
2022/06/03 12:21:51;;;;;;;0.00;0.00;;;21.00;93.10;;;;;;5035815;28;20517;-79
2022/06/03 12:24:41;;;;;;;0.00;0.00;;;21.00;93.80;;;;;;5043605;28;20512;-78
2022/06/03 12:27:24;;;;;;;0.00;0.00;;;21.00;94.10;;;;;;5042181;28;20485;-77
2022/06/03 12:30:26;;;;;;;0.00;0.00;;;21.10;94.10;;;;;;5035036;28;20821;-79
2022/06/03 12:32:57;;;;;;;0.00;0.00;;;21.20;93.50;;;;;;5032639;28;20484;-78
2022/06/03 12:35:55;;;;;;;0.00;0.00;;;21.20;94.20;;;;;;5031132;28;20457;-78
2022/06/03 12:38:35;;;;;;;0.00;0.00;;;21.20;93.70;;;;;;5030216;27;20493;-79
2022/06/03 12:41:05;;;;;;;0.00;0.00;;;21.20;94.30;;;;;;5031789;28;20479;-77
2022/06/03 12:44:00;;;;;;;0.00;0.00;;;21.20;94.70;;;;;;5029237;28;20552;-77
2022/06/03 12:46:40;;;;;;;0.00;0.00;;;21.30;94.50;;;;;;5028745;28;20521;-78
2022/06/03 12:49:39;;;;;;;0.00;0.00;;;21.40;93.60;;;;;;5028355;28;20517;-78
2022/06/03 12:52:12;;;;;;;0.00;0.00;;;21.50;93.40;;;;;;5028639;27;20481;-78
2022/06/03 12:54:48;;;;;;;0.00;0.00;;;21.50;92.90;;;;;;5029234;28;20536;-79
2022/06/03 12:57:23;;;;;;;0.00;0.00;;;21.40;93.00;;;;;;5028261;28;20577;-78
2022/06/03 12:59:57;;;;;;;0.00;0.00;;;21.40;92.70;;;;;;5026855;28;20440;-77
2022/06/03 13:02:35;;;;;;;0.00;0.00;;;21.50;93.30;;;;;;5026927;28;20536;-78
2022/06/03 13:05:24;;;;;;;0.00;0.00;;;21.50;93.00;;;;;;5027502;28;20521;-78
2022/06/03 13:08:01;;;;;;;0.00;0.00;;;21.50;92.60;;;;;;5026369;28;20453;-78
2022/06/03 13:10:32;;;;;;;0.00;0.00;;;21.50;92.70;;;;;;5026909;28;20520;-79
2022/06/03 13:13:24;;;;;;;0.00;0.00;;;21.50;92.80;;;;;;5028824;28;20610;-78
2022/06/03 13:15:53;;;;;;;0.00;0.00;;;21.50;92.90;;;;;;5028690;28;20430;-79
2022/06/03 13:18:40;;;;;;;0.00;0.00;;;21.50;93.30;;;;;;5028020;27;20446;-76
2022/06/03 13:21:18;;;;;;;0.00;0.00;;;21.50;93.40;;;;;;5032557;28;20465;-77
2022/06/03 13:24:16;;;;;;;0.00;0.00;;;21.50;93.40;;;;;;5034484;28;20429;-77
2022/06/03 13:26:50;;;;;;;0.00;0.00;;;21.50;93.30;;;;;;5043112;27;20687;-79
2022/06/03 13:29:52;;;;;;;0.00;0.00;;;21.50;93.90;;;;;;5054936;28;20535;-77
2022/06/03 13:32:38;;;;;;;0.00;0.00;;;21.50;93.60;;;;;;5050117;27;20476;-78
2022/06/03 13:35:08;;;;;;;0.00;0.00;;;21.60;93.80;;;;;;5048704;27;20439;-79
2022/06/03 13:37:46;;;;;;;0.00;0.00;;;21.60;93.80;;;;;;5025796;27;20461;-76
2022/06/03 13:40:30;;;;;;;0.00;0.00;;;21.70;93.80;;;;;;5031386;28;20445;-77
2022/06/03 13:43:24;;;;;;;0.00;0.00;;;21.70;94.00;;;;;;5030377;28;20736;-77
2022/06/03 13:45:58;;;;;;;0.00;0.00;;;21.80;94.30;;;;;;5042502;28;20477;-78
2022/06/03 13:48:33;;;;;;;0.00;0.00;;;21.80;94.30;;;;;;5032794;27;20471;-79
2022/06/03 13:51:27;;;;;;;0.00;0.00;;;21.80;95.20;;;;;;5035489;27;20514;-75
2022/06/03 13:53:58;;;;;;;0.00;0.00;;;21.80;94.60;;;;;;5029755;28;20655;-76
2022/06/03 13:56:29;;;;;;;0.00;0.00;;;21.80;95.00;;;;;;5030939;28;21023;-78
2022/06/03 13:59:00;;;;;;;0.00;0.00;;;21.90;95.00;;;;;;5028135;28;20665;-79
2022/06/03 14:01:31;;;;;;;0.00;0.00;;;22.00;94.50;;;;;;5021430;28;20821;-79
2022/06/03 14:04:05;;;;;;;0.00;0.00;;;22.00;94.60;;;;;;5018733;28;21104;-75
2022/06/03 14:06:37;;;;;;;0.00;0.00;;;22.10;93.80;;;;;;5019789;27;20473;-74
2022/06/03 14:09:11;;;;;;;0.00;0.00;;;22.10;93.90;;;;;;5025068;28;20749;-75
2022/06/03 14:11:43;;;;;;;0.00;0.00;;;22.00;94.30;;;;;;5020364;28;20570;-74
2022/06/03 14:14:17;;;;;;;0.00;0.00;;;21.90;94.30;;;;;;5020831;27;20480;-77
2022/06/03 14:16:50;;;;;;;0.00;0.00;;;21.90;94.60;;;;;;5038476;28;20442;-77
2022/06/03 14:19:42;;;;;;;0.00;0.00;;;21.80;95.00;;;;;;5028944;28;20538;-76
2022/06/03 14:22:34;;;;;;;0.00;0.00;;;21.90;94.10;;;;;;5025138;28;20739;-77
2022/06/03 14:25:20;;;;;;;0.00;0.00;;;22.00;94.40;;;;;;5039489;28;20508;-79
2022/06/03 14:27:59;;;;;;;0.00;0.00;;;22.00;94.10;;;;;;5022541;27;20480;-77
2022/06/03 14:30:42;;;;;;;0.00;0.00;;;22.00;93.80;;;;;;5040157;28;20476;-79
2022/06/03 14:33:15;;;;;;;0.00;0.00;;;22.00;93.10;;;;;;5040266;28;20774;-79
2022/06/03 14:35:49;;;;;;;0.00;0.00;;;22.00;93.70;;;;;;5039998;28;20529;-79
2022/06/03 14:38:25;;;;;;;0.00;0.00;;;22.00;94.10;;;;;;5039857;28;20480;-80
2022/06/03 14:40:54;;;;;;;0.00;0.00;;;22.10;94.20;;;;;;5019447;27;20458;-79
2022/06/03 14:43:26;;;;;;;0.00;0.00;;;22.10;94.10;;;;;;5019944;28;20475;-79
2022/06/03 14:45:59;;;;;;;0.00;0.00;;;22.10;93.50;;;;;;5019840;28;21004;-81
2022/06/03 14:48:31;;;;;;;0.00;0.00;;;22.20;93.70;;;;;;5019885;28;20810;-79